Time;durP1;ratioP1;P1;durP2;ratioP2;P2;SDS_P1;SDS_P2;PMS_P1;PMS_P2;Temp;Humidity;BMP_temperature;BMP_pressure;BME280_temperature;BME280_humidity;BME280_pressure;Samples;Min_cycle;Max_cycle;Signal;HPM_P1;HPM_P2
2023/07/21 00:02:07;;;;;;;17.38;9.65;;;;;;;30.57;39.32;100329.03;4912077;28;20219;-81
2023/07/21 00:04:40;;;;;;;16.17;9.18;;;;;;;30.62;39.61;100336.44;4915974;28;20671;-80
2023/07/21 00:07:07;;;;;;;23.98;10.20;;;;;;;30.55;40.30;100355.06;4934591;28;20046;-80
2023/07/21 00:09:40;;;;;;;19.10;9.23;;;;;;;30.47;38.75;100339.19;4932428;28;20054;-81
2023/07/21 00:12:14;;;;;;;23.58;9.38;;;;;;;30.48;38.80;100332.63;4913798;28;20448;-80
2023/07/21 00:14:44;;;;;;;20.50;9.20;;;;;;;30.28;38.77;100304.16;4913285;28;20124;-79
2023/07/21 00:17:11;;;;;;;19.67;8.80;;;;;;;30.26;38.67;100309.06;4921463;28;20050;-78
2023/07/21 00:19:38;;;;;;;17.77;9.43;;;;;;;30.01;39.38;100269.63;4944202;28;20046;-80
2023/07/21 00:22:05;;;;;;;18.17;9.20;;;;;;;30.28;40.98;100312.38;4931243;28;20502;-81
2023/07/21 00:24:33;;;;;;;27.27;9.68;;;;;;;30.16;39.22;100300.84;4912137;28;20101;-80
2023/07/21 00:27:02;;;;;;;27.42;10.00;;;;;;;30.30;40.23;100321.13;4915412;28;20051;-80
2023/07/21 00:29:29;;;;;;;14.73;8.63;;;;;;;30.41;42.54;100314.53;4913763;28;20054;-81
2023/07/21 00:32:01;;;;;;;16.63;8.38;;;;;;;30.55;39.06;100317.53;4891761;28;20047;-80
2023/07/21 00:34:37;;;;;;;21.45;9.98;;;;;;;30.29;38.48;100292.09;4897634;28;20114;-80
2023/07/21 00:37:12;;;;;;;19.30;9.43;;;;;;;30.48;38.22;100319.75;4925354;28;20067;-81
2023/07/21 00:39:48;;;;;;;15.82;9.57;;;;;;;30.54;40.25;100331.53;4904709;28;20046;-80
2023/07/21 00:42:17;;;;;;;21.58;8.68;;;;;;;30.49;40.70;100329.63;4925304;28;20426;-80
2023/07/21 00:44:54;;;;;;;27.10;9.77;;;;;;;30.42;42.25;100304.44;4930921;28;20135;-79
2023/07/21 00:47:20;;;;;;;18.88;9.32;;;;;;;30.63;40.94;100324.38;4911131;28;20070;-81
2023/07/21 00:49:53;;;;;;;24.02;9.00;;;;;;;30.41;39.09;100289.06;4894420;28;20371;-80
2023/07/21 00:52:28;;;;;;;23.02;9.02;;;;;;;30.36;40.89;100280.88;4898375;28;20053;-80
2023/07/21 00:54:57;;;;;;;19.40;9.00;;;;;;;30.63;40.54;100317.00;4916939;28;20043;-80
2023/07/21 00:57:25;;;;;;;20.17;8.98;;;;;;;30.41;41.09;100289.06;4906339;28;20254;-78
2023/07/21 00:59:52;;;;;;;19.50;8.95;;;;;;;30.63;37.86;100313.41;4910879;28;20482;-79
2023/07/21 01:02:31;;;;;;;17.77;8.65;;;;;;;30.22;39.34;100266.88;4923663;28;20054;-81
2023/07/21 01:05:01;;;;;;;22.60;8.50;;;;;;;30.43;38.76;100304.13;4914716;28;20052;-82
2023/07/21 01:07:39;;;;;;;17.00;8.60;;;;;;;30.46;40.66;100308.22;4926456;28;20167;-81
2023/07/21 01:10:15;;;;;;;19.00;8.43;;;;;;;30.26;39.29;100265.28;4896095;28;20061;-81
2023/07/21 01:12:52;;;;;;;22.30;10.40;;;;;;;30.50;39.96;100314.00;4912553;28;20074;-81
2023/07/21 01:15:27;;;;;;;22.45;9.43;;;;;;;30.19;37.07;100267.44;4922143;28;20070;-81
2023/07/21 01:17:59;;;;;;;17.67;8.60;;;;;;;30.47;38.61;100300.88;4903196;28;20297;-80
2023/07/21 01:20:34;;;;;;;23.95;9.07;;;;;;;30.41;37.36;100306.31;4910336;28;20611;-81
2023/07/21 01:23:34;;;;;;;15.15;9.60;;;;;;;30.36;38.58;100292.63;4913047;28;20085;-81
2023/07/21 01:26:05;;;;;;;16.23;8.43;;;;;;;30.25;37.03;100293.75;4906851;28;20521;-81
2023/07/21 01:28:39;;;;;;;27.40;10.02;;;;;;;30.07;37.59;100277.84;4911928;28;20061;-79
2023/07/21 01:31:16;;;;;;;23.63;8.93;;;;;;;30.06;38.66;100278.97;4893807;28;20292;-80
2023/07/21 01:33:52;;;;;;;26.08;9.60;;;;;;;30.00;40.01;100284.44;4892143;28;20397;-81
2023/07/21 01:36:28;;;;;;;19.98;9.13;;;;;;;30.06;37.00;100289.91;4897592;28;20130;-82
2023/07/21 01:39:03;;;;;;;15.40;8.77;;;;;;;29.89;37.15;100274.56;4897707;28;20452;-80
2023/07/21 01:41:38;;;;;;;17.40;9.13;;;;;;;29.78;37.69;100253.75;4908060;28;20336;-81
2023/07/21 01:44:12;;;;;;;23.48;9.43;;;;;;;30.09;38.30;100295.63;4891581;28;20339;-79
2023/07/21 01:46:48;;;;;;;26.10;9.95;;;;;;;30.06;41.74;100281.69;4902028;28;20134;-81
2023/07/21 01:49:25;;;;;;;22.23;9.52;;;;;;;30.17;38.66;100277.84;4897214;28;20264;-81
2023/07/21 01:51:59;;;;;;;16.58;8.52;;;;;;;29.88;38.67;100212.75;4913566;28;20051;-81
2023/07/21 01:54:42;;;;;;;21.15;8.75;;;;;;;30.01;39.49;100231.31;4917691;28;20097;-82
2023/07/21 01:57:22;;;;;;;19.20;9.02;;;;;;;30.02;36.28;100265.81;4898408;28;20819;-80
2023/07/21 01:59:58;;;;;;;22.60;10.23;;;;;;;29.97;35.88;100254.84;4897567;28;20051;-79
2023/07/21 02:02:33;;;;;;;18.17;8.00;;;;;;;30.03;38.41;100283.88;4897812;28;20102;-81
2023/07/21 02:05:01;;;;;;;16.42;9.23;;;;;;;30.00;37.21;100289.06;4901004;28;20053;-80
2023/07/21 02:07:28;;;;;;;19.42;8.65;;;;;;;29.85;36.30;100276.19;4941112;28;20038;-81
2023/07/21 02:09:58;;;;;;;21.75;10.60;;;;;;;29.67;36.44;100260.34;4946857;28;20059;-80
2023/07/21 02:12:25;;;;;;;22.30;9.75;;;;;;;29.34;39.37;100224.13;4941238;28;20067;-80
2023/07/21 02:14:58;;;;;;;16.52;8.70;;;;;;;29.60;40.22;100285.97;4946086;28;20348;-79
2023/07/21 02:17:25;;;;;;;18.27;9.85;;;;;;;29.57;40.90;100297.47;4936701;28;20065;-80
2023/07/21 02:19:53;;;;;;;24.88;11.00;;;;;;;29.36;41.90;100290.31;4932649;28;20120;-79
2023/07/21 02:22:23;;;;;;;25.98;10.80;;;;;;;29.25;42.20;100294.09;4941613;28;20561;-81
2023/07/21 02:24:51;;;;;;;21.77;11.27;;;;;;;28.93;42.53;100275.88;4946597;28;20050;-81
2023/07/21 02:27:18;;;;;;;22.70;9.88;;;;;;;28.87;44.10;100276.97;4948785;28;20124;-79
2023/07/21 02:29:49;;;;;;;20.98;8.38;;;;;;;29.43;48.61;100310.00;4945965;28;20189;-77
2023/07/21 02:32:19;;;;;;;24.42;10.45;;;;;;;29.15;44.95;100290.25;4936017;28;20046;-79
2023/07/21 02:34:50;;;;;;;19.20;10.27;;;;;;;29.22;44.78;100306.38;4936056;28;20580;-80
2023/07/21 02:37:19;;;;;;;22.15;9.57;;;;;;;28.83;45.52;100259.47;4940654;28;20038;-82
2023/07/21 02:39:46;;;;;;;28.73;12.02;;;;;;;29.10;44.68;100319.44;4946064;28;20137;-79
2023/07/21 02:42:17;;;;;;;21.10;10.13;;;;;;;28.97;44.45;100307.06;4936416;28;20053;-80
2023/07/21 02:44:46;;;;;;;22.67;10.60;;;;;;;28.77;44.47;100311.34;4947097;28;20121;-79
2023/07/21 02:47:18;;;;;;;18.27;10.02;;;;;;;28.52;44.83;100312.00;4931090;28;20055;-78
2023/07/21 02:49:53;;;;;;;23.35;11.30;;;;;;;28.58;45.32;100329.25;4956243;28;20763;-80
2023/07/21 02:52:21;;;;;;;31.70;11.15;;;;;;;28.44;45.67;100333.47;4935047;28;20808;-80
2023/07/21 02:54:48;;;;;;;17.10;9.90;;;;;;;28.31;44.67;100341.03;4936051;28;20554;-81
2023/07/21 02:57:15;;;;;;;18.35;9.93;;;;;;;28.33;43.86;100365.34;4941234;28;20469;-78
2023/07/21 02:59:47;;;;;;;26.45;10.30;;;;;;;28.11;43.13;100362.69;4944683;28;20117;-80
2023/07/21 03:02:18;;;;;;;18.70;10.20;;;;;;;27.98;43.61;100361.19;4933699;28;20403;-81
2023/07/21 03:04:45;;;;;;;18.98;11.38;;;;;;;28.17;43.97;100408.03;4930222;28;20614;-79
2023/07/21 03:07:16;;;;;;;22.13;11.30;;;;;;;28.24;43.83;100429.66;4940153;28;20300;-81
2023/07/21 03:09:44;;;;;;;21.35;10.43;;;;;;;28.15;44.03;100414.81;4924140;28;20230;-81
2023/07/21 03:12:12;;;;;;;19.92;10.20;;;;;;;28.08;44.20;100395.91;4933329;28;20137;-79
2023/07/21 03:14:42;;;;;;;23.27;9.63;;;;;;;28.34;43.71;100438.75;4941941;28;20113;-81
2023/07/21 03:17:13;;;;;;;20.13;9.35;;;;;;;28.34;42.81;100433.28;4926093;28;20083;-78
2023/07/21 03:19:40;;;;;;;;;;;;;;;28.33;42.22;100428.94;4918947;28;20058;-80
2023/07/21 03:22:15;;;;;;;17.73;9.50;;;;;;;27.98;42.07;100374.81;4920514;28;20003;-80
2023/07/21 03:24:43;;;;;;;23.80;9.70;;;;;;;28.18;41.96;100415.16;4936836;28;20039;-81
2023/07/21 03:27:12;;;;;;;33.83;10.40;;;;;;;28.38;42.23;100435.53;4926212;28;20057;-80
2023/07/21 03:29:46;;;;;;;19.48;9.38;;;;;;;28.33;41.71;100433.56;4937535;28;20042;-80
2023/07/21 03:32:14;;;;;;;24.52;10.70;;;;;;;28.37;42.00;100442.06;4955184;28;20141;-80
2023/07/21 03:34:48;;;;;;;25.60;10.60;;;;;;;28.25;42.08;100443.03;4963255;28;20126;-81
2023/07/21 03:37:16;;;;;;;20.27;9.68;;;;;;;28.27;42.02;100446.34;4951507;28;20503;-79
2023/07/21 03:39:44;;;;;;;23.02;9.70;;;;;;;28.42;45.23;100439.38;4914892;28;20386;-78
2023/07/21 03:42:12;;;;;;;22.25;10.38;;;;;;;28.52;45.08;100414.91;4913643;29;20463;-79
2023/07/21 03:44:41;;;;;;;20.83;9.75;;;;;;;28.63;42.36;100435.78;4923059;28;20043;-78
2023/07/21 03:47:15;;;;;;;25.45;9.88;;;;;;;28.63;42.45;100438.50;4905405;29;20047;-78
2023/07/21 03:49:43;;;;;;;26.98;11.38;;;;;;;28.48;44.26;100411.91;4914613;29;20321;-79
2023/07/21 03:52:11;;;;;;;28.20;10.73;;;;;;;28.25;44.41;100379.44;4910932;29;20074;-79
2023/07/21 03:54:41;;;;;;;27.75;11.60;;;;;;;28.34;45.17;100400.53;4900479;29;20510;-79
2023/07/21 03:57:10;;;;;;;34.28;11.15;;;;;;;28.37;45.66;100436.59;4927624;29;20134;-79
2023/07/21 03:59:42;;;;;;;22.48;11.27;;;;;;;28.60;43.53;100460.88;4940367;28;20117;-81
2023/07/21 04:02:09;;;;;;;29.95;11.73;;;;;;;28.53;43.28;100469.28;4925713;28;20051;-79
2023/07/21 04:04:36;;;;;;;19.48;9.68;;;;;;;28.31;46.14;100433.81;4921886;28;20414;-80
2023/07/21 04:07:07;;;;;;;20.38;10.90;;;;;;;28.45;44.12;100460.69;4952135;28;20050;-80
2023/07/21 04:09:35;;;;;;;29.27;10.67;;;;;;;27.84;44.72;100373.56;4924549;28;20145;-77
2023/07/21 04:12:08;;;;;;;17.92;10.60;;;;;;;28.30;45.94;100451.28;4900230;28;20275;-79
2023/07/21 04:14:37;;;;;;;23.77;11.05;;;;;;;28.05;45.02;100408.19;4927394;29;20370;-78
2023/07/21 04:17:05;;;;;;;27.33;11.68;;;;;;;28.36;45.08;100446.69;4917707;28;20138;-81
2023/07/21 04:19:33;;;;;;;25.95;11.23;;;;;;;28.15;45.43;100453.03;4917302;29;20383;-79
2023/07/21 04:22:00;;;;;;;22.63;11.75;;;;;;;27.98;45.94;100456.66;4931169;28;20902;-78
2023/07/21 04:24:30;;;;;;;17.52;11.57;;;;;;;27.98;46.41;100466.75;4923546;28;20139;-80
2023/07/21 04:26:58;;;;;;;27.08;12.63;;;;;;;27.70;45.90;100439.41;4931832;28;20046;-81
2023/07/21 04:29:26;;;;;;;18.13;10.50;;;;;;;27.80;46.25;100452.34;4935750;28;20046;-79
2023/07/21 04:32:03;;;;;;;25.52;11.05;;;;;;;27.71;46.58;100443.78;4930380;28;20054;-80
2023/07/21 04:34:42;;;;;;;21.08;11.52;;;;;;;27.60;46.98;100422.06;4932972;28;20476;-79
2023/07/21 04:37:29;;;;;;;24.33;12.00;;;;;;;27.15;46.89;100341.38;4941165;28;20057;-79
2023/07/21 04:39:56;;;;;;;22.10;11.43;;;;;;;27.75;47.50;100430.47;4901471;28;20050;-80
2023/07/21 04:42:24;;;;;;;22.20;11.75;;;;;;;27.92;47.81;100449.50;4921623;28;20094;-77
2023/07/21 04:44:53;;;;;;;28.95;12.88;;;;;;;28.01;48.06;100455.31;4926409;28;20042;-81
2023/07/21 04:47:22;;;;;;;24.42;11.40;;;;;;;28.02;48.66;100451.53;4942366;28;20378;-79
2023/07/21 04:49:50;;;;;;;31.20;12.75;;;;;;;28.12;48.48;100460.66;4940357;28;20046;-80
2023/07/21 04:52:18;;;;;;;28.27;12.70;;;;;;;28.10;48.95;100459.25;4885992;28;20054;-78
2023/07/21 04:54:45;;;;;;;26.05;11.45;;;;;;;27.75;49.05;100403.19;4924383;28;20458;-77
2023/07/21 04:57:15;;;;;;;22.55;13.00;;;;;;;28.05;49.59;100445.56;4919198;28;20470;-80
2023/07/21 04:59:43;;;;;;;34.97;12.73;;;;;;;28.12;50.09;100451.63;4927602;28;20277;-79
2023/07/21 05:02:10;;;;;;;22.58;14.07;;;;;;;28.11;49.81;100445.38;4917570;28;20538;-78
2023/07/21 05:04:43;;;;;;;29.73;12.68;;;;;;;28.22;49.68;100434.53;4938679;28;20315;-78
2023/07/21 05:07:15;;;;;;;34.10;16.83;;;;;;;28.31;50.23;100454.84;4947199;28;20035;-79
2023/07/21 05:09:42;;;;;;;29.80;12.45;;;;;;;28.17;50.41;100421.66;4929425;28;20505;-78
2023/07/21 05:12:13;;;;;;;32.25;14.07;;;;;;;28.38;50.87;100446.44;4912478;28;20097;-80
2023/07/21 05:14:41;;;;;;;30.10;12.55;;;;;;;28.38;51.00;100449.19;4942070;28;20654;-79
2023/07/21 05:17:09;;;;;;;31.75;13.35;;;;;;;28.15;51.38;100407.47;4924455;28;20233;-79
2023/07/21 05:19:37;;;;;;;28.52;13.52;;;;;;;28.49;51.67;100440.84;4927698;28;20074;-78
2023/07/21 05:22:05;;;;;;;21.85;12.40;;;;;;;28.49;51.81;100442.75;4939928;28;20126;-79
2023/07/21 05:24:33;;;;;;;29.77;12.93;;;;;;;28.49;52.08;100451.75;4925693;28;20304;-78
2023/07/21 05:27:04;;;;;;;27.92;12.32;;;;;;;28.54;52.47;100448.25;4916162;28;20574;-79
2023/07/21 05:29:32;;;;;;;26.67;11.65;;;;;;;28.66;52.37;100459.81;4958235;28;20062;-80
2023/07/21 05:32:03;;;;;;;31.90;13.15;;;;;;;27.48;52.49;100245.84;4946510;28;20510;-78
2023/07/21 05:34:33;;;;;;;18.83;11.52;;;;;;;28.87;52.40;100447.16;4931842;28;20034;-80
2023/07/21 05:37:02;;;;;;;27.08;13.15;;;;;;;28.86;52.13;100441.94;4949460;28;20571;-80
2023/07/21 05:39:29;;;;;;;28.38;12.57;;;;;;;29.00;52.35;100456.81;4922421;28;20054;-79
2023/07/21 05:41:58;;;;;;;20.80;12.77;;;;;;;29.09;51.66;100433.41;4943534;28;20401;-81
2023/07/21 05:44:26;;;;;;;25.83;12.98;;;;;;;29.32;51.79;100442.28;4938233;28;20042;-80
2023/07/21 05:46:53;;;;;;;30.23;12.60;;;;;;;29.32;51.18;100442.28;4947226;28;20047;-79
2023/07/21 05:49:23;;;;;;;25.50;12.82;;;;;;;29.41;51.21;100429.75;4936534;28;20049;-82
2023/07/21 05:51:51;;;;;;;28.15;13.35;;;;;;;29.27;51.63;100418.47;4930304;28;20087;-79
2023/07/21 05:54:19;;;;;;;31.90;14.38;;;;;;;29.30;51.67;100428.06;4927084;29;20043;-80
2023/07/21 05:56:49;;;;;;;26.42;13.35;;;;;;;29.13;51.86;100399.00;4938986;28;20459;-79
2023/07/21 05:59:18;;;;;;;;;;;;;;;29.30;52.21;100423.44;4938996;28;20051;-80
2023/07/21 06:01:46;;;;;;;39.78;14.65;;;;;;;29.31;52.27;100432.44;4933309;28;19918;-78
2023/07/21 06:04:14;;;;;;;39.83;13.57;;;;;;;29.14;52.38;100397.91;4940519;28;20294;-80
2023/07/21 06:06:43;;;;;;;33.42;14.98;;;;;;;29.51;52.11;100421.59;4962914;28;20042;-78
2023/07/21 06:09:12;;;;;;;25.25;12.32;;;;;;;29.59;52.22;100425.75;4931637;28;20402;-79
2023/07/21 06:11:45;;;;;;;25.02;13.70;;;;;;;29.60;51.77;100422.72;4957454;28;20037;-81
2023/07/21 06:14:16;;;;;;;27.58;13.27;;;;;;;29.51;51.97;100402.47;4948681;28;20046;-79
2023/07/21 06:16:43;;;;;;;29.50;14.18;;;;;;;29.70;51.71;100426.63;4951402;28;20042;-80
2023/07/21 06:19:12;;;;;;;26.30;13.40;;;;;;;29.76;51.02;100431.03;4967979;28;20489;-79
2023/07/21 06:21:40;;;;;;;28.92;13.85;;;;;;;29.85;50.73;100418.47;4966784;28;20042;-78
2023/07/21 06:24:06;;;;;;;25.17;14.23;;;;;;;29.88;50.32;100411.63;4965286;28;20042;-79
2023/07/21 06:26:34;;;;;;;24.85;13.48;;;;;;;29.96;50.13;100420.16;4963851;28;20050;-79
2023/07/21 06:29:05;;;;;;;25.73;13.13;;;;;;;29.79;49.54;100378.53;4954060;28;20070;-80
2023/07/21 06:31:33;;;;;;;24.08;13.15;;;;;;;30.09;49.11;100418.00;4948993;28;20053;-80
2023/07/21 06:34:01;;;;;;;25.27;12.50;;;;;;;30.04;48.91;100418.81;4941370;28;20521;-79
2023/07/21 06:36:29;;;;;;;37.55;14.05;;;;;;;29.89;48.37;100375.81;4940949;28;20042;-79
2023/07/21 06:39:00;;;;;;;22.45;11.60;;;;;;;29.96;47.94;100395.53;4938596;28;20046;-80
2023/07/21 06:41:29;;;;;;;25.35;13.00;;;;;;;30.15;48.31;100427.88;4934778;28;20046;-79
2023/07/21 06:43:57;;;;;;;23.73;11.27;;;;;;;29.99;48.67;100400.44;4935873;28;20046;-79
2023/07/21 06:46:24;;;;;;;22.67;11.73;;;;;;;30.34;48.70;100423.56;4945627;28;20354;-80
2023/07/21 06:48:53;;;;;;;28.67;10.32;;;;;;;30.28;46.28;100432.84;4962702;28;20052;-79
2023/07/21 06:51:21;;;;;;;20.35;10.40;;;;;;;30.37;46.10;100436.69;4959341;28;21043;-75
2023/07/21 06:53:49;;;;;;;25.60;10.50;;;;;;;30.30;47.10;100435.31;4963787;28;20175;-78
2023/07/21 06:56:19;;;;;;;34.25;14.20;;;;;;;30.21;48.50;100404.88;4930368;28;20047;-80
2023/07/21 06:58:46;;;;;;;32.28;13.85;;;;;;;30.33;49.60;100432.84;4949621;28;20089;-79
2023/07/21 07:01:14;;;;;;;34.83;14.40;;;;;;;30.24;49.89;100399.69;4966486;28;20246;-79
2023/07/21 07:03:42;;;;;;;35.13;13.68;;;;;;;30.35;50.64;100425.19;4962498;28;20053;-79
2023/07/21 07:06:14;;;;;;;26.65;13.45;;;;;;;30.24;49.80;100387.88;4956594;28;20471;-83
2023/07/21 07:08:42;;;;;;;30.95;12.88;;;;;;;30.02;47.89;100342.44;4939818;28;20050;-81
2023/07/21 07:11:11;;;;;;;25.35;11.63;;;;;;;30.33;47.43;100397.25;4928381;28;20133;-81
2023/07/21 07:13:38;;;;;;;20.80;11.43;;;;;;;30.27;47.91;100390.13;4963768;28;20374;-78
2023/07/21 07:16:09;;;;;;;19.23;10.98;;;;;;;30.39;48.59;100401.63;4954492;28;20191;-79
2023/07/21 07:18:40;;;;;;;32.88;12.25;;;;;;;30.47;47.12;100397.53;4954403;28;20133;-79
2023/07/21 07:21:09;;;;;;;37.92;12.35;;;;;;;30.25;46.70;100356.72;4942972;28;20061;-81
2023/07/21 07:23:39;;;;;;;21.27;10.82;;;;;;;30.47;47.16;100385.75;4949462;28;20058;-79
2023/07/21 07:26:06;;;;;;;29.25;11.38;;;;;;;30.58;48.31;100387.38;4951312;28;20046;-78
2023/07/21 07:28:38;;;;;;;22.40;12.85;;;;;;;30.70;49.34;100366.00;4952917;28;20047;-79
2023/07/21 07:31:09;;;;;;;35.47;16.63;;;;;;;30.83;49.89;100373.69;4912246;28;20046;-79
2023/07/21 07:33:36;;;;;;;28.73;13.38;;;;;;;30.94;49.91;100382.69;4927141;28;20042;-80
2023/07/21 07:36:03;;;;;;;26.98;13.18;;;;;;;30.97;49.86;100364.88;4927723;28;20547;-80
2023/07/21 07:38:30;;;;;;;23.30;12.98;;;;;;;30.78;50.36;100368.19;4928602;28;20400;-78
2023/07/21 07:41:12;;;;;;;24.58;13.07;;;;;;;30.82;50.88;100377.47;4933070;28;20134;-80
2023/07/21 07:43:45;;;;;;;30.80;13.93;;;;;;;30.82;51.01;100376.66;4919632;28;20414;-79
2023/07/21 07:46:12;;;;;;;21.33;12.20;;;;;;;30.62;50.95;100340.00;4930263;28;20282;-81
2023/07/21 07:48:39;;;;;;;23.13;12.32;;;;;;;30.40;50.59;100298.41;4929668;28;20648;-80
2023/07/21 07:51:07;;;;;;;33.03;16.25;;;;;;;30.78;51.12;100375.56;4921866;28;20201;-79
2023/07/21 07:53:36;;;;;;;29.15;12.68;;;;;;;31.04;50.61;100379.13;4939292;28;20062;-79
2023/07/21 07:56:14;;;;;;;26.75;12.35;;;;;;;31.04;47.80;100362.66;4913857;28;20046;-81
2023/07/21 07:58:44;;;;;;;34.40;12.20;;;;;;;30.92;48.67;100373.13;4934125;28;22263;-80
2023/07/21 08:01:13;;;;;;;33.75;14.05;;;;;;;30.85;46.30;100338.63;4927162;28;20043;-79
2023/07/21 08:03:43;;;;;;;24.10;12.70;;;;;;;30.97;46.41;100367.63;4927822;28;20105;-79
2023/07/21 08:06:16;;;;;;;28.48;13.88;;;;;;;30.91;46.81;100357.78;4926265;28;20047;-80
2023/07/21 08:08:43;;;;;;;28.70;11.55;;;;;;;30.97;47.54;100356.66;4928565;28;20207;-79
2023/07/21 08:11:12;;;;;;;25.33;12.40;;;;;;;30.86;45.79;100340.25;4918444;28;20391;-80
2023/07/21 08:13:40;;;;;;;28.30;11.55;;;;;;;30.55;47.31;100246.31;4932761;28;20043;-79
2023/07/21 08:16:09;;;;;;;21.27;12.05;;;;;;;31.37;47.12;100319.22;4940408;28;20047;-79
2023/07/21 08:18:36;;;;;;;30.50;12.30;;;;;;;31.40;48.28;100314.03;4939204;28;20141;-80
2023/07/21 08:21:21;;;;;;;34.80;15.80;;;;;;;31.32;50.02;100330.22;4919089;28;20042;-81
2023/07/21 08:23:51;;;;;;;30.98;16.00;;;;;;;31.16;49.92;100300.13;4909502;29;20050;-80
2023/07/21 08:26:21;;;;;;;33.15;16.30;;;;;;;31.19;50.22;100321.50;4928313;28;20094;-80
2023/07/21 08:28:52;;;;;;;29.95;14.43;;;;;;;31.04;49.13;100285.91;4922993;28;20043;-81
2023/07/21 08:31:20;;;;;;;33.50;14.93;;;;;;;31.39;48.79;100330.75;4910272;28;20057;-81
2023/07/21 08:33:47;;;;;;;33.78;14.43;;;;;;;31.43;47.99;100329.09;4952366;28;20046;-79
2023/07/21 08:36:14;;;;;;;24.23;14.13;;;;;;;30.77;48.93;100218.56;4951587;28;20049;-80
2023/07/21 08:38:41;;;;;;;23.98;13.00;;;;;;;31.54;48.69;100308.75;4936661;28;20468;-79
2023/07/21 08:41:17;;;;;;;23.17;13.13;;;;;;;31.31;46.59;100280.03;4926493;28;20078;-80
2023/07/21 08:43:48;;;;;;;29.45;12.82;;;;;;;31.45;46.64;100314.00;4936157;28;20448;-79
2023/07/21 08:46:16;;;;;;;30.90;13.40;;;;;;;31.52;47.13;100313.69;4942342;28;20043;-79
2023/07/21 08:48:46;;;;;;;25.13;11.35;;;;;;;31.68;46.94;100307.00;4955654;28;20137;-81
2023/07/21 08:51:18;;;;;;;18.77;12.30;;;;;;;31.93;46.96;100297.75;4937962;28;20398;-80
2023/07/21 08:53:45;;;;;;;24.65;11.00;;;;;;;32.03;43.79;100290.59;4956292;28;20050;-81
2023/07/21 08:56:13;;;;;;;24.17;10.15;;;;;;;31.76;43.38;100247.16;4953210;28;20057;-82
2023/07/21 08:58:46;;;;;;;17.48;10.43;;;;;;;32.02;44.49;100262.31;4954518;28;20043;-77
2023/07/21 09:01:16;;;;;;;24.30;10.35;;;;;;;32.13;44.21;100274.84;4957484;28;20046;-79
2023/07/21 09:03:46;;;;;;;22.23;9.98;;;;;;;31.81;43.09;100236.13;4939724;28;20050;-78
2023/07/21 09:06:18;;;;;;;22.30;10.02;;;;;;;32.32;42.92;100296.09;4932038;28;20042;-78
2023/07/21 09:08:57;;;;;;;20.08;9.43;;;;;;;32.14;44.15;100229.81;4918191;28;20047;-80
2023/07/21 09:11:26;;;;;;;23.60;10.80;;;;;;;32.49;44.21;100241.56;4912280;29;20102;-80
2023/07/21 09:13:56;;;;;;;23.15;11.27;;;;;;;32.22;44.77;100178.13;4918915;29;20051;-79
2023/07/21 09:16:24;;;;;;;23.45;10.63;;;;;;;31.99;42.72;100209.91;4907351;28;20134;-79
2023/07/21 09:18:53;;;;;;;21.92;10.75;;;;;;;32.00;42.21;100217.88;4911344;29;20039;-78
2023/07/21 09:21:24;;;;;;;16.70;9.40;;;;;;;32.35;42.25;100248.81;4911609;29;20098;-78
2023/07/21 09:24:04;;;;;;;24.65;10.10;;;;;;;32.67;42.24;100266.66;4921269;28;20309;-78
2023/07/21 09:26:32;;;;;;;23.10;10.63;;;;;;;32.67;42.64;100222.69;4917398;28;20179;-80
2023/07/21 09:28:59;;;;;;;27.45;11.00;;;;;;;32.84;42.42;100267.00;4937102;28;20635;-80
2023/07/21 09:31:36;;;;;;;21.90;10.15;;;;;;;32.53;42.02;100239.88;4935265;28;20379;-80
2023/07/21 09:34:09;;;;;;;25.70;9.98;;;;;;;32.51;42.90;100239.34;4947674;28;20070;-81
2023/07/21 09:36:44;;;;;;;22.58;9.60;;;;;;;32.22;42.67;100233.03;4926494;28;20482;-81
2023/07/21 09:39:14;;;;;;;20.42;10.73;;;;;;;32.38;43.49;100281.19;4944605;28;20212;-81
2023/07/21 09:41:44;;;;;;;17.92;9.93;;;;;;;32.61;43.37;100290.63;4942343;28;20042;-79
2023/07/21 09:44:18;;;;;;;25.60;9.65;;;;;;;32.38;42.15;100303.16;4922071;28;20478;-82
2023/07/21 09:46:52;;;;;;;28.83;11.18;;;;;;;32.47;42.04;100309.69;4930819;28;20090;-80
2023/07/21 09:49:20;;;;;;;16.35;9.77;;;;;;;32.61;42.43;100309.03;4934169;28;20383;-80
2023/07/21 09:51:51;;;;;;;22.92;10.23;;;;;;;32.46;42.24;100279.78;4923999;28;20046;-79
2023/07/21 09:54:25;;;;;;;22.63;9.82;;;;;;;32.62;41.77;100313.41;4929679;28;20121;-80
2023/07/21 09:56:54;;;;;;;24.08;11.13;;;;;;;32.46;42.13;100271.53;4932618;28;20505;-80
2023/07/21 09:59:21;;;;;;;26.33;10.43;;;;;;;32.47;41.83;100226.47;4940909;28;20065;-81
2023/07/21 10:01:48;;;;;;;17.55;9.63;;;;;;;32.28;42.45;100209.91;4939515;28;20394;-81
2023/07/21 10:04:19;;;;;;;22.15;10.43;;;;;;;32.61;42.08;100273.31;4934958;28;20051;-82
2023/07/21 10:06:47;;;;;;;23.38;11.15;;;;;;;32.76;40.79;100286.88;4953308;28;20073;-81
2023/07/21 10:09:16;;;;;;;19.23;9.98;;;;;;;32.98;41.93;100273.41;4934907;28;20045;-81
2023/07/21 10:11:46;;;;;;;22.98;9.85;;;;;;;32.99;42.17;100222.81;4952217;28;20082;-80
2023/07/21 10:14:33;;;;;;;21.67;8.82;;;;;;;32.97;41.09;100216.81;4960861;28;20083;-81
2023/07/21 10:17:01;;;;;;;23.77;9.90;;;;;;;32.60;41.23;100165.34;4961926;28;20117;-79
2023/07/21 10:19:30;;;;;;;19.45;10.07;;;;;;;32.88;42.55;100215.81;4943229;28;20046;-81
2023/07/21 10:21:58;;;;;;;25.42;9.82;;;;;;;32.81;41.32;100251.09;4927679;28;20056;-80
2023/07/21 10:24:28;;;;;;;21.40;10.38;;;;;;;32.97;41.14;100282.78;4931428;28;20132;-79
2023/07/21 10:27:03;;;;;;;24.42;10.68;;;;;;;32.93;41.71;100287.22;4954082;28;20534;-79
2023/07/21 10:29:31;;;;;;;27.55;10.35;;;;;;;32.80;40.58;100296.19;4933099;28;20042;-78
2023/07/21 10:32:08;;;;;;;19.50;9.35;;;;;;;32.78;40.68;100285.47;4928889;28;20539;-79
2023/07/21 10:34:42;;;;;;;25.30;11.20;;;;;;;32.75;41.55;100290.75;4933307;28;20065;-77
2023/07/21 10:37:19;;;;;;;18.90;10.40;;;;;;;32.87;41.21;100329.66;4943950;28;20133;-78
2023/07/21 10:39:54;;;;;;;26.17;9.68;;;;;;;32.76;40.75;100319.88;4921527;28;20530;-79
2023/07/21 10:42:21;;;;;;;21.00;9.77;;;;;;;32.40;41.59;100253.44;4946936;28;20137;-80
2023/07/21 10:44:51;;;;;;;21.05;9.82;;;;;;;32.44;42.69;100263.56;4958695;28;20116;-81
2023/07/21 10:47:20;;;;;;;21.50;9.43;;;;;;;32.42;44.82;100317.97;4970769;28;20042;-80
2023/07/21 10:49:49;;;;;;;21.08;9.75;;;;;;;32.29;45.52;100321.41;4968164;28;20093;-78
2023/07/21 10:52:19;;;;;;;22.45;10.13;;;;;;;32.22;45.88;100305.25;4968406;28;20553;-81
2023/07/21 10:54:46;;;;;;;26.63;10.15;;;;;;;32.21;45.59;100297.28;4941239;28;20133;-81
2023/07/21 10:57:12;;;;;;;22.30;10.20;;;;;;;32.11;45.19;100304.53;4942395;28;20054;-78
2023/07/21 10:59:41;;;;;;;27.30;10.45;;;;;;;32.15;44.32;100305.56;4939407;28;20089;-81
2023/07/21 11:02:08;;;;;;;24.02;10.32;;;;;;;31.98;45.49;100277.72;4938631;28;20141;-80
2023/07/21 11:04:42;;;;;;;24.40;10.98;;;;;;;32.01;44.32;100293.63;4931712;28;20047;-81
2023/07/21 11:07:10;;;;;;;28.08;11.38;;;;;;;31.75;44.73;100295.72;4947666;28;20043;-81
2023/07/21 11:09:45;;;;;;;26.85;9.60;;;;;;;31.94;44.98;100298.56;4943747;28;20386;-81
2023/07/21 11:12:14;;;;;;;22.02;9.15;;;;;;;32.22;45.22;100315.44;4960880;28;20129;-79
2023/07/21 11:14:44;;;;;;;20.13;10.70;;;;;;;32.32;42.98;100307.91;4968325;28;20046;-80
2023/07/21 11:17:11;;;;;;;24.73;10.70;;;;;;;32.75;43.29;100342.97;4974517;28;20042;-80
2023/07/21 11:19:38;;;;;;;21.77;11.18;;;;;;;32.96;42.94;100329.81;4932732;28;20072;-78
2023/07/21 11:22:07;;;;;;;22.27;9.35;;;;;;;33.02;42.89;100361.63;4946105;28;20852;-81
2023/07/21 11:24:36;;;;;;;26.17;10.63;;;;;;;33.02;41.70;100355.34;4950014;28;20046;-78
2023/07/21 11:27:09;;;;;;;23.23;10.02;;;;;;;33.26;41.00;100367.16;4965548;28;20596;-81